Time;durP1;ratioP1;P1;durP2;ratioP2;P2;SDS_P1;SDS_P2;PMS_P1;PMS_P2;Temp;Humidity;BMP_temperature;BMP_pressure;BME280_temperature;BME280_humidity;BME280_pressure;Samples;Min_cycle;Max_cycle;Signal;HPM_P1;HPM_P2
2021/09/15 00:00:57;;;;;;;;;;;25.40;52.90;;;;;;1564274;75;776;-61
2021/09/15 00:02:59;;;;;;;;;;;25.40;53.10;;;;;;1547994;75;1932;-60
2021/09/15 00:05:01;;;;;;;;;;;25.40;53.10;;;;;;1547136;76;1122;-60
2021/09/15 00:07:03;;;;;;;;;;;25.30;53.10;;;;;;1556861;76;729;-61
2021/09/15 00:09:05;;;;;;;;;;;25.40;53.20;;;;;;1547042;76;676;-61
2021/09/15 00:11:07;;;;;;;;;;;25.40;53.20;;;;;;1547314;76;717;-61
2021/09/15 00:13:09;;;;;;;;;;;25.40;53.10;;;;;;1552643;76;1184;-60
2021/09/15 00:15:11;;;;;;;;;;;25.30;53.10;;;;;;1548952;76;672;-60
2021/09/15 00:17:13;;;;;;;;;;;25.40;53.10;;;;;;1546776;76;791;-60
2021/09/15 00:19:14;;;;;;;;;;;25.40;53.10;;;;;;1557679;76;689;-60
2021/09/15 00:21:16;;;;;;;;;;;25.40;53.10;;;;;;1554421;76;724;-59
2021/09/15 00:23:18;;;;;;;;;;;25.30;53.10;;;;;;1548380;76;1929;-61
2021/09/15 00:25:20;;;;;;;;;;;25.30;53.10;;;;;;1546257;76;784;-61
2021/09/15 00:27:22;;;;;;;;;;;25.40;53.00;;;;;;1555292;76;932;-60
2021/09/15 00:29:24;;;;;;;;;;;25.40;53.00;;;;;;1550934;76;714;-60
2021/09/15 00:31:26;;;;;;;;;;;25.30;53.00;;;;;;1548120;76;700;-59
2021/09/15 00:33:27;;;;;;;;;;;25.40;53.00;;;;;;1541588;76;1055;-59
2021/09/15 00:35:29;;;;;;;;;;;25.40;53.00;;;;;;1551330;76;695;-60
2021/09/15 00:37:31;;;;;;;;;;;25.40;53.00;;;;;;1544950;76;742;-60
2021/09/15 00:39:33;;;;;;;;;;;25.40;53.00;;;;;;1547279;76;738;-60
2021/09/15 00:41:35;;;;;;;;;;;25.40;53.00;;;;;;1554700;76;692;-61
2021/09/15 00:43:55;;;;;;;;;;;25.40;52.90;;;;;;1553978;76;1927;-60
2021/09/15 00:45:58;;;;;;;;;;;25.40;52.90;;;;;;1554163;76;741;-61
2021/09/15 00:48:00;;;;;;;;;;;25.30;53.00;;;;;;1553033;76;713;-60
2021/09/15 00:50:02;;;;;;;;;;;25.40;52.90;;;;;;1544058;76;805;-61
2021/09/15 00:52:04;;;;;;;;;;;25.40;52.90;;;;;;1559950;76;718;-61
2021/09/15 00:54:06;;;;;;;;;;;25.40;52.90;;;;;;1557359;76;1089;-61
2021/09/15 00:56:08;;;;;;;;;;;25.40;52.90;;;;;;1547028;76;727;-61
2021/09/15 00:58:10;;;;;;;;;;;25.40;52.90;;;;;;1551160;76;671;-61
2021/09/15 01:00:12;;;;;;;;;;;25.40;52.90;;;;;;1550308;76;648;-61
2021/09/15 01:02:14;;;;;;;;;;;25.40;52.90;;;;;;1556872;74;744;-61
2021/09/15 01:04:16;;;;;;;;;;;25.40;52.90;;;;;;1555181;76;1941;-60
2021/09/15 01:06:18;;;;;;;;;;;25.40;52.90;;;;;;1549579;76;706;-61
2021/09/15 01:08:20;;;;;;;;;;;25.40;52.90;;;;;;1540836;76;659;-61
2021/09/15 01:10:22;;;;;;;;;;;25.30;52.80;;;;;;1549622;76;709;-61
2021/09/15 01:12:23;;;;;;;;;;;25.40;52.80;;;;;;1545341;76;708;-61
2021/09/15 01:14:25;;;;;;;;;;;25.40;52.80;;;;;;1548515;76;1176;-61
2021/09/15 01:16:27;;;;;;;;;;;25.40;52.80;;;;;;1560093;76;784;-61
2021/09/15 01:18:29;;;;;;;;;;;25.30;52.70;;;;;;1578064;73;3128;-65
2021/09/15 01:20:31;;;;;;;;;;;25.30;52.80;;;;;;1597125;73;944;-65
2021/09/15 01:22:33;;;;;;;;;;;25.30;52.70;;;;;;1605337;73;771;-64
2021/09/15 01:24:35;;;;;;;;;;;25.30;52.70;;;;;;1603488;73;1919;-63
2021/09/15 01:26:37;;;;;;;;;;;25.30;52.60;;;;;;1600116;73;876;-60
2021/09/15 01:28:38;;;;;;;;;;;25.40;52.50;;;;;;1599622;73;756;-60
2021/09/15 01:30:41;;;;;;;;;;;25.30;52.60;;;;;;1590303;73;783;-61
2021/09/15 01:32:42;;;;;;;;;;;25.30;52.50;;;;;;1598913;73;817;-61
2021/09/15 01:34:47;;;;;;;;;;;25.30;52.50;;;;;;1604429;73;1122;-61
2021/09/15 01:36:49;;;;;;;;;;;25.40;52.40;;;;;;1607974;73;2011;-61
2021/09/15 01:38:51;;;;;;;;;;;25.30;52.40;;;;;;1605527;73;755;-61
2021/09/15 01:40:53;;;;;;;;;;;25.30;52.40;;;;;;1595068;73;772;-61
2021/09/15 01:42:55;;;;;;;;;;;25.30;52.40;;;;;;1597229;73;808;-61
2021/09/15 01:44:56;;;;;;;;;;;25.40;52.50;;;;;;1599453;73;1933;-62
2021/09/15 01:47:03;;;;;;;;;;;25.30;52.50;;;;;;1600391;73;759;-63
2021/09/15 01:49:02;;;;;;;;;;;25.40;52.40;;;;;;1605704;73;1372;-63
2021/09/15 01:51:04;;;;;;;;;;;25.30;52.40;;;;;;1603277;73;802;-63
2021/09/15 01:53:06;;;;;;;;;;;25.30;52.40;;;;;;1599821;73;1150;-63
2021/09/15 01:55:08;;;;;;;;;;;25.40;52.40;;;;;;1605267;73;712;-63
2021/09/15 01:57:10;;;;;;;;;;;25.30;52.40;;;;;;1604683;73;788;-62
2021/09/15 01:59:12;;;;;;;;;;;25.40;52.40;;;;;;1602626;73;790;-64
2021/09/15 02:01:14;;;;;;;;;;;25.30;52.40;;;;;;1603308;73;750;-63
2021/09/15 02:03:15;;;;;;;;;;;25.40;52.40;;;;;;1604423;73;1956;-63
2021/09/15 02:05:18;;;;;;;;;;;25.30;52.50;;;;;;1604080;73;724;-63
2021/09/15 02:07:19;;;;;;;;;;;25.40;52.40;;;;;;1604455;73;949;-63
2021/09/15 02:09:21;;;;;;;;;;;25.40;52.30;;;;;;1600914;73;776;-63
2021/09/15 02:11:24;;;;;;;;;;;25.30;52.40;;;;;;1603600;73;862;-62
2021/09/15 02:13:26;;;;;;;;;;;25.40;52.40;;;;;;1604643;73;1094;-63
2021/09/15 02:15:28;;;;;;;;;;;25.30;52.40;;;;;;1603840;73;761;-63
2021/09/15 02:17:30;;;;;;;;;;;25.30;52.40;;;;;;1602801;73;720;-64
2021/09/15 02:19:33;;;;;;;;;;;25.30;52.50;;;;;;1606507;73;700;-65
2021/09/15 02:21:35;;;;;;;;;;;25.30;52.50;;;;;;1601985;73;660;-66
2021/09/15 02:23:37;;;;;;;;;;;25.30;52.60;;;;;;1600192;73;1948;-64
2021/09/15 02:25:39;;;;;;;;;;;25.30;52.60;;;;;;1612362;73;762;-65
2021/09/15 02:27:41;;;;;;;;;;;25.30;52.60;;;;;;1604025;73;765;-66
2021/09/15 02:29:42;;;;;;;;;;;25.30;52.60;;;;;;1600736;73;601;-66
2021/09/15 02:31:44;;;;;;;;;;;25.40;52.60;;;;;;1594279;73;782;-66
2021/09/15 02:33:46;;;;;;;;;;;25.30;52.50;;;;;;1604351;73;1128;-66
2021/09/15 02:35:48;;;;;;;;;;;25.30;52.60;;;;;;1626210;73;718;-66
2021/09/15 02:37:50;;;;;;;;;;;25.30;52.60;;;;;;1609387;73;717;-66
2021/09/15 02:39:52;;;;;;;;;;;25.30;52.50;;;;;;1590768;73;721;-66
2021/09/15 02:41:54;;;;;;;;;;;25.30;52.60;;;;;;1587854;73;769;-66
2021/09/15 02:43:56;;;;;;;;;;;25.30;52.60;;;;;;1601656;73;1952;-66
2021/09/15 02:45:57;;;;;;;;;;;25.30;52.60;;;;;;1588901;73;702;-67
2021/09/15 02:47:59;;;;;;;;;;;25.30;52.60;;;;;;1590446;73;793;-67
2021/09/15 02:50:01;;;;;;;;;;;25.30;52.60;;;;;;1597909;73;805;-66
2021/09/15 02:52:03;;;;;;;;;;;25.40;52.60;;;;;;1601773;73;754;-66
2021/09/15 02:54:05;;;;;;;;;;;25.40;52.60;;;;;;1589557;73;1124;-66
2021/09/15 02:56:07;;;;;;;;;;;25.30;52.60;;;;;;1601551;73;695;-66
2021/09/15 02:58:09;;;;;;;;;;;25.40;52.60;;;;;;1596626;73;695;-67
2021/09/15 03:00:11;;;;;;;;;;;25.30;52.60;;;;;;1601872;73;754;-66
2021/09/15 03:02:13;;;;;;;;;;;25.20;52.60;;;;;;1601190;73;702;-67
2021/09/15 03:04:15;;;;;;;;;;;25.30;52.60;;;;;;1601640;73;1956;-66
2021/09/15 03:06:17;;;;;;;;;;;25.30;52.60;;;;;;1596351;73;673;-66
2021/09/15 03:08:19;;;;;;;;;;;25.20;52.60;;;;;;1600273;73;662;-66
2021/09/15 03:10:20;;;;;;;;;;;25.40;52.60;;;;;;1624986;73;762;-66
2021/09/15 03:12:22;;;;;;;;;;;25.30;52.60;;;;;;1604107;73;751;-66
2021/09/15 03:14:24;;;;;;;;;;;25.20;52.50;;;;;;1601121;73;1112;-66
2021/09/15 03:16:26;;;;;;;;;;;25.20;52.60;;;;;;1593165;73;765;-66
2021/09/15 03:18:28;;;;;;;;;;;25.20;52.60;;;;;;1601128;73;727;-66
2021/09/15 03:20:30;;;;;;;;;;;25.20;52.60;;;;;;1600446;73;743;-66
2021/09/15 03:22:32;;;;;;;;;;;25.20;52.60;;;;;;1619309;73;777;-66
2021/09/15 03:24:34;;;;;;;;;;;25.30;52.60;;;;;;1600998;73;1952;-66
2021/09/15 03:26:36;;;;;;;;;;;25.30;52.60;;;;;;1594012;73;686;-65
2021/09/15 03:28:37;;;;;;;;;;;25.30;52.60;;;;;;1601165;73;701;-65
2021/09/15 03:30:39;;;;;;;;;;;25.20;52.70;;;;;;1600534;73;778;-65
2021/09/15 03:32:41;;;;;;;;;;;25.30;52.60;;;;;;1596591;73;735;-65
2021/09/15 03:34:43;;;;;;;;;;;25.20;52.50;;;;;;1588349;73;1153;-65
2021/09/15 03:36:45;;;;;;;;;;;25.20;52.60;;;;;;1593966;73;748;-65
2021/09/15 03:38:47;;;;;;;;;;;25.20;52.50;;;;;;1620339;73;791;-65
2021/09/15 03:40:49;;;;;;;;;;;25.20;52.50;;;;;;1609155;73;733;-64
2021/09/15 03:42:51;;;;;;;;;;;25.20;52.60;;;;;;1619646;73;677;-63
2021/09/15 03:44:53;;;;;;;;;;;25.20;52.50;;;;;;1607266;73;1952;-63
2021/09/15 03:46:55;;;;;;;;;;;25.20;52.50;;;;;;1601177;73;809;-64
2021/09/15 03:48:56;;;;;;;;;;;25.10;52.40;;;;;;1596145;73;705;-64
2021/09/15 03:50:58;;;;;;;;;;;25.20;52.40;;;;;;1598774;73;719;-64
2021/09/15 03:53:00;;;;;;;;;;;25.20;52.30;;;;;;1606597;73;672;-64
2021/09/15 03:55:02;;;;;;;;;;;25.20;52.40;;;;;;1599629;73;1187;-64
2021/09/15 03:57:04;;;;;;;;;;;25.20;52.40;;;;;;1600693;73;819;-64
2021/09/15 03:59:06;;;;;;;;;;;25.20;52.40;;;;;;1601119;73;771;-65
2021/09/15 04:01:10;;;;;;;;;;;25.30;52.40;;;;;;1600320;73;723;-65
2021/09/15 04:03:12;;;;;;;;;;;25.10;52.30;;;;;;1592111;73;1152;-65
2021/09/15 04:05:13;;;;;;;;;;;25.10;52.50;;;;;;1600602;73;1921;-68
2021/09/15 04:07:15;;;;;;;;;;;25.20;52.50;;;;;;1594352;73;748;-68
2021/09/15 04:09:17;;;;;;;;;;;25.20;52.60;;;;;;1601026;73;789;-68
2021/09/15 04:11:19;;;;;;;;;;;25.10;52.60;;;;;;1600581;73;750;-68
2021/09/15 04:13:21;;;;;;;;;;;25.10;52.60;;;;;;1594946;73;1137;-68
2021/09/15 04:15:23;;;;;;;;;;;25.10;52.60;;;;;;1600907;73;794;-68
2021/09/15 04:17:25;;;;;;;;;;;25.10;52.60;;;;;;1600616;73;730;-68
2021/09/15 04:19:27;;;;;;;;;;;25.10;52.60;;;;;;1603671;73;760;-68
2021/09/15 04:21:28;;;;;;;;;;;25.10;52.60;;;;;;1603327;73;749;-68
2021/09/15 04:23:36;;;;;;;;;;;25.10;52.70;;;;;;1600337;73;1147;-66
2021/09/15 04:32:33;;;;;;;;;;;25.10;52.80;;;;;;1586806;73;1621;-66
2021/09/15 04:34:35;;;;;;;;;;;25.10;52.90;;;;;;1604224;73;1105;-66
2021/09/15 04:36:37;;;;;;;;;;;24.80;52.80;;;;;;1606008;73;737;-66
2021/09/15 04:38:38;;;;;;;;;;;25.10;52.80;;;;;;1600285;73;958;-66
2021/09/15 04:40:40;;;;;;;;;;;25.10;52.90;;;;;;1600949;73;953;-66
2021/09/15 04:42:42;;;;;;;;;;;25.10;52.90;;;;;;1602849;73;671;-66
2021/09/15 04:44:44;;;;;;;;;;;25.10;52.90;;;;;;1609390;73;1955;-66
2021/09/15 04:46:46;;;;;;;;;;;25.10;52.90;;;;;;1600199;73;763;-66
2021/09/15 04:48:49;;;;;;;;;;;25.10;52.90;;;;;;1599160;73;790;-66
2021/09/15 04:50:51;;;;;;;;;;;25.10;53.00;;;;;;1593225;73;719;-67
2021/09/15 04:52:53;;;;;;;;;;;25.10;53.00;;;;;;1609583;73;690;-66
2021/09/15 04:54:55;;;;;;;;;;;25.10;53.00;;;;;;1608486;73;1096;-66
2021/09/15 04:56:57;;;;;;;;;;;25.10;52.90;;;;;;1600192;73;765;-66
2021/09/15 04:58:59;;;;;;;;;;;25.10;52.90;;;;;;1597024;73;742;-66
2021/09/15 05:01:01;;;;;;;;;;;25.10;52.80;;;;;;1600805;73;754;-66
2021/09/15 05:03:03;;;;;;;;;;;25.10;52.80;;;;;;1612431;73;742;-66
2021/09/15 05:05:05;;;;;;;;;;;25.10;52.80;;;;;;1608863;73;1935;-66
2021/09/15 05:07:07;;;;;;;;;;;25.10;52.90;;;;;;1594477;73;807;-66
2021/09/15 05:09:09;;;;;;;;;;;25.00;52.90;;;;;;1611883;73;932;-66
2021/09/15 05:11:11;;;;;;;;;;;25.10;52.80;;;;;;1600136;73;679;-66
2021/09/15 05:13:13;;;;;;;;;;;25.10;52.80;;;;;;1614687;73;1112;-67
2021/09/15 05:15:14;;;;;;;;;;;25.10;52.80;;;;;;1603766;73;712;-67
2021/09/15 05:17:16;;;;;;;;;;;25.10;52.80;;;;;;1595043;73;761;-66
2021/09/15 05:19:18;;;;;;;;;;;25.10;52.80;;;;;;1600937;73;802;-66
2021/09/15 05:21:20;;;;;;;;;;;25.10;52.90;;;;;;1600202;73;808;-67
2021/09/15 05:23:22;;;;;;;;;;;25.10;52.90;;;;;;1604367;73;1155;-65
2021/09/15 05:25:24;;;;;;;;;;;25.00;52.90;;;;;;1589678;73;1946;-65
2021/09/15 05:27:26;;;;;;;;;;;25.10;53.00;;;;;;1599499;73;716;-65
2021/09/15 05:29:28;;;;;;;;;;;25.10;53.00;;;;;;1601395;73;727;-66
2021/09/15 05:31:29;;;;;;;;;;;25.10;53.00;;;;;;1601368;73;746;-65
2021/09/15 05:33:31;;;;;;;;;;;25.10;53.10;;;;;;1604226;73;1126;-61
2021/09/15 05:35:33;;;;;;;;;;;25.10;53.00;;;;;;1591396;73;782;-62
2021/09/15 05:37:35;;;;;;;;;;;25.10;52.90;;;;;;1600613;73;672;-60
2021/09/15 05:39:37;;;;;;;;;;;25.10;52.80;;;;;;1605781;73;765;-60
2021/09/15 05:41:39;;;;;;;;;;;25.20;52.80;;;;;;1605531;73;741;-60
2021/09/15 05:43:41;;;;;;;;;;;25.10;52.70;;;;;;1611778;73;1141;-60
2021/09/15 05:45:43;;;;;;;;;;;25.20;52.50;;;;;;1597799;73;1940;-60
2021/09/15 05:47:44;;;;;;;;;;;25.10;52.40;;;;;;1594213;73;726;-60
2021/09/15 05:49:46;;;;;;;;;;;25.10;52.40;;;;;;1600870;73;716;-60
2021/09/15 05:51:48;;;;;;;;;;;25.10;52.40;;;;;;1599910;73;791;-60
2021/09/15 05:53:50;;;;;;;;;;;25.10;52.50;;;;;;1597598;73;1137;-60
2021/09/15 05:55:52;;;;;;;;;;;25.00;52.60;;;;;;1604207;73;757;-60
2021/09/15 05:57:54;;;;;;;;;;;25.10;52.30;;;;;;1605814;73;730;-61
2021/09/15 05:59:56;;;;;;;;;;;25.00;51.90;;;;;;1600840;73;728;-61
2021/09/15 06:01:58;;;;;;;;;;;25.00;51.90;;;;;;1595302;73;1002;-61
2021/09/15 06:03:59;;;;;;;;;;;25.00;51.90;;;;;;1588730;73;1168;-60
2021/09/15 06:06:01;;;;;;;;;;;25.00;52.00;;;;;;1590419;73;1914;-60
2021/09/15 06:08:04;;;;;;;;;;;25.00;52.10;;;;;;1600396;73;738;-61
2021/09/15 06:10:06;;;;;;;;;;;24.90;52.20;;;;;;1600825;73;718;-61
2021/09/15 06:12:08;;;;;;;;;;;24.90;52.30;;;;;;1600834;73;709;-61
2021/09/15 06:14:10;;;;;;;;;;;24.90;52.40;;;;;;1595610;73;1054;-61
2021/09/15 06:16:12;;;;;;;;;;;24.90;52.40;;;;;;1600298;73;693;-61
2021/09/15 06:18:13;;;;;;;;;;;24.90;52.50;;;;;;1600587;73;717;-61
2021/09/15 06:20:15;;;;;;;;;;;24.80;52.30;;;;;;1592794;73;733;-60
2021/09/15 06:22:17;;;;;;;;;;;24.80;52.30;;;;;;1601540;73;778;-61
2021/09/15 06:24:19;;;;;;;;;;;24.80;52.40;;;;;;1602554;73;1119;-61
2021/09/15 06:26:26;;;;;;;;;;;24.80;52.40;;;;;;1600630;73;1905;-60
2021/09/15 06:28:26;;;;;;;;;;;24.80;52.30;;;;;;1603966;73;1605;-60
2021/09/15 06:30:28;;;;;;;;;;;24.80;52.30;;;;;;1604260;73;763;-60
2021/09/15 06:32:29;;;;;;;;;;;24.80;52.10;;;;;;1600709;73;825;-60
2021/09/15 06:34:31;;;;;;;;;;;24.80;52.10;;;;;;1599157;73;1122;-60
2021/09/15 06:36:33;;;;;;;;;;;24.70;52.20;;;;;;1600647;73;852;-61
2021/09/15 06:38:35;;;;;;;;;;;24.70;52.20;;;;;;1601029;73;761;-61
2021/09/15 06:40:37;;;;;;;;;;;24.80;52.20;;;;;;1601228;73;717;-61
2021/09/15 06:42:39;;;;;;;;;;;24.70;52.20;;;;;;1596111;73;706;-60
2021/09/15 06:44:41;;;;;;;;;;;24.70;52.30;;;;;;1603669;73;1072;-61
2021/09/15 06:46:43;;;;;;;;;;;24.80;52.30;;;;;;1607933;73;1940;-60
2021/09/15 06:48:44;;;;;;;;;;;24.80;52.30;;;;;;1611397;73;693;-60
2021/09/15 06:50:47;;;;;;;;;;;24.70;52.30;;;;;;1601567;73;767;-61
2021/09/15 06:52:48;;;;;;;;;;;24.70;52.30;;;;;;1603671;73;803;-60
2021/09/15 06:54:50;;;;;;;;;;;24.80;52.30;;;;;;1600742;73;1103;-61
2021/09/15 06:56:52;;;;;;;;;;;24.80;52.30;;;;;;1602755;73;826;-61
2021/09/15 06:58:54;;;;;;;;;;;24.70;52.30;;;;;;1601288;73;694;-60
2021/09/15 07:00:56;;;;;;;;;;;24.70;52.30;;;;;;1596810;73;756;-61
2021/09/15 07:02:58;;;;;;;;;;;24.70;52.30;;;;;;1600671;73;757;-61
2021/09/15 07:05:00;;;;;;;;;;;24.70;52.40;;;;;;1601591;73;1112;-61
2021/09/15 07:07:02;;;;;;;;;;;24.70;52.40;;;;;;1597989;73;1943;-60
2021/09/15 07:09:04;;;;;;;;;;;24.70;52.50;;;;;;1601467;73;656;-60
2021/09/15 07:11:06;;;;;;;;;;;24.70;52.50;;;;;;1597421;73;844;-59
2021/09/15 07:13:07;;;;;;;;;;;24.70;52.50;;;;;;1600815;73;1135;-61
2021/09/15 07:15:10;;;;;;;;;;;24.60;52.40;;;;;;1602957;73;773;-60
2021/09/15 07:17:11;;;;;;;;;;;24.60;52.40;;;;;;1601393;73;729;-62
2021/09/15 07:19:13;;;;;;;;;;;24.60;52.50;;;;;;1597232;73;662;-60
2021/09/15 07:21:15;;;;;;;;;;;24.70;52.70;;;;;;1595838;71;223431;-68
2021/09/15 07:23:17;;;;;;;;;;;24.70;52.70;;;;;;1580950;75;756;-68
2021/09/15 07:25:19;;;;;;;;;;;24.70;52.70;;;;;;1600015;74;1910;-71
2021/09/15 07:27:21;;;;;;;;;;;24.80;52.80;;;;;;1586214;74;789;-71
2021/09/15 07:29:23;;;;;;;;;;;24.70;52.80;;;;;;1601366;74;687;-71
2021/09/15 07:31:25;;;;;;;;;;;24.70;52.80;;;;;;1576581;75;1139;-71
2021/09/15 07:33:32;;;;;;;;;;;24.80;52.80;;;;;;1588739;74;743;-71
2021/09/15 07:35:30;;;;;;;;;;;24.80;52.90;;;;;;1595618;74;1086;-72
2021/09/15 07:37:32;;;;;;;;;;;24.80;53.00;;;;;;1593288;74;721;-68
2021/09/15 07:39:34;;;;;;;;;;;24.80;52.80;;;;;;1581700;74;1134;-72
2021/09/15 07:41:36;;;;;;;;;;;24.80;52.80;;;;;;1582514;74;699;-70
2021/09/15 07:43:38;;;;;;;;;;;24.80;52.90;;;;;;1595555;74;685;-72
2021/09/15 07:45:40;;;;;;;;;;;24.80;52.90;;;;;;1579542;74;1939;-69
2021/09/15 07:47:42;;;;;;;;;;;24.80;53.10;;;;;;1593386;73;785;-64
2021/09/15 07:49:44;;;;;;;;;;;24.80;53.10;;;;;;1577419;74;1201;-68
2021/09/15 07:51:46;;;;;;;;;;;24.80;53.10;;;;;;1581544;73;778;-79
2021/09/15 07:53:47;;;;;;;;;;;24.80;53.10;;;;;;1584526;74;698;-74
2021/09/15 07:55:49;;;;;;;;;;;24.90;53.20;;;;;;1589467;74;704;-72
2021/09/15 07:57:53;;;;;;;;;;;24.80;53.10;;;;;;1571975;74;656;-74
2021/09/15 07:59:55;;;;;;;;;;;24.80;53.10;;;;;;1579534;74;1137;-78
2021/09/15 08:01:57;;;;;;;;;;;24.80;53.10;;;;;;1580089;74;720;-70
2021/09/15 08:03:59;;;;;;;;;;;24.80;53.30;;;;;;1593992;74;649;-69
2021/09/15 08:06:04;;;;;;;;;;;24.80;53.40;;;;;;1577813;74;1933;-67
2021/09/15 08:08:05;;;;;;;;;;;24.80;53.50;;;;;;1579568;74;1435;-66
2021/09/15 08:10:06;;;;;;;;;;;24.70;53.50;;;;;;1588905;74;1185;-67
2021/09/15 08:12:08;;;;;;;;;;;24.70;53.60;;;;;;1589146;74;731;-67
2021/09/15 08:14:10;;;;;;;;;;;24.80;53.60;;;;;;1597487;74;708;-66
2021/09/15 08:16:12;;;;;;;;;;;24.80;53.60;;;;;;1587072;74;635;-67
2021/09/15 08:18:14;;;;;;;;;;;24.70;53.60;;;;;;1589361;74;755;-67
2021/09/15 08:20:16;;;;;;;;;;;24.70;53.60;;;;;;1580525;73;1086;-67
2021/09/15 08:22:18;;;;;;;;;;;24.70;53.60;;;;;;1598235;74;713;-66
2021/09/15 08:24:20;;;;;;;;;;;24.70;53.60;;;;;;1600525;74;749;-67
2021/09/15 08:26:21;;;;;;;;;;;24.70;53.60;;;;;;1588822;74;1922;-67
2021/09/15 08:28:23;;;;;;;;;;;24.70;53.60;;;;;;1584547;74;619;-67
2021/09/15 08:30:25;;;;;;;;;;;24.80;53.50;;;;;;1591643;74;1153;-67
2021/09/15 08:32:27;;;;;;;;;;;24.70;53.40;;;;;;1591650;74;772;-67
2021/09/15 08:34:29;;;;;;;;;;;24.70;53.40;;;;;;1579128;74;679;-68
2021/09/15 08:36:31;;;;;;;;;;;24.70;53.50;;;;;;1579037;74;800;-68
2021/09/15 08:38:33;;;;;;;;;;;24.70;53.50;;;;;;1593015;74;758;-69
2021/09/15 08:40:35;;;;;;;;;;;24.70;53.60;;;;;;1602715;74;1106;-66
2021/09/15 08:42:37;;;;;;;;;;;24.80;53.60;;;;;;1602741;73;768;-66
2021/09/15 08:44:38;;;;;;;;;;;24.80;53.70;;;;;;1591586;74;705;-68
2021/09/15 08:46:40;;;;;;;;;;;24.70;53.70;;;;;;1598360;74;1935;-65
2021/09/15 08:48:42;;;;;;;;;;;24.80;53.70;;;;;;1562070;75;709;-66
2021/09/15 08:50:52;;;;;;;;;;;24.70;53.60;;;;;;1600692;74;1136;-66
2021/09/15 08:52:54;;;;;;;;;;;24.80;53.60;;;;;;1602457;74;716;-64
2021/09/15 08:54:56;;;;;;;;;;;24.80;53.60;;;;;;1585501;73;780;-68
2021/09/15 08:56:57;;;;;;;;;;;24.80;53.70;;;;;;1582981;74;907;-69
2021/09/15 08:58:59;;;;;;;;;;;24.80;53.70;;;;;;1593600;74;691;-68
2021/09/15 09:01:08;;;;;;;;;;;24.80;53.70;;;;;;1579387;75;1138;-67
2021/09/15 09:03:09;;;;;;;;;;;24.70;53.80;;;;;;1588916;74;612;-68
2021/09/15 09:05:11;;;;;;;;;;;24.70;53.80;;;;;;1591099;74;755;-68
2021/09/15 09:07:13;;;;;;;;;;;24.70;53.90;;;;;;1598287;74;1931;-68
2021/09/15 09:09:15;;;;;;;;;;;24.70;53.90;;;;;;1602836;74;674;-67
2021/09/15 09:11:17;;;;;;;;;;;24.70;54.00;;;;;;1569712;74;1226;-69
2021/09/15 09:13:19;;;;;;;;;;;24.80;53.90;;;;;;1578229;74;689;-67
2021/09/15 09:15:23;;;;;;;;;;;24.70;53.90;;;;;;1570606;74;772;-68
2021/09/15 09:17:29;;;;;;;;;;;24.70;54.00;;;;;;1549055;75;1232;-68
2021/09/15 09:19:35;;;;;;;;;;;24.70;53.90;;;;;;1593300;74;697;-68
2021/09/15 09:21:35;;;;;;;;;;;24.70;54.00;;;;;;1581883;74;1201;-68
2021/09/15 09:23:38;;;;;;;;;;;24.70;54.00;;;;;;1581453;74;701;-67
2021/09/15 09:25:47;;;;;;;;;;;24.70;54.00;;;;;;1548932;75;945;-70
2021/09/15 09:27:49;;;;;;;;;;;24.70;54.00;;;;;;1582004;74;1935;-68
2021/09/15 09:29:51;;;;;;;;;;;24.70;54.00;;;;;;1580947;74;1149;-68
2021/09/15 09:31:56;;;;;;;;;;;24.70;54.10;;;;;;1580049;74;880;-68
2021/09/15 09:34:04;;;;;;;;;;;24.70;54.00;;;;;;1585054;74;727;-67
2021/09/15 09:36:10;;;;;;;;;;;24.80;54.10;;;;;;1594215;74;695;-68
2021/09/15 09:38:19;;;;;;;;;;;24.80;54.00;;;;;;1596566;74;1200;-68
2021/09/15 09:40:21;;;;;;;;;;;24.80;54.00;;;;;;1581360;74;1135;-70
2021/09/15 09:42:26;;;;;;;;;;;24.80;53.90;;;;;;1584436;74;725;-68
2021/09/15 09:44:28;;;;;;;;;;;24.90;53.90;;;;;;1597894;74;879;-68
2021/09/15 09:46:31;;;;;;;;;;;24.80;53.80;;;;;;1588024;74;1929;-68
2021/09/15 09:48:40;;;;;;;;;;;24.80;53.90;;;;;;1577152;74;758;-68
2021/09/15 09:50:42;;;;;;;;;;;24.80;53.90;;;;;;1563358;74;1217;-68
2021/09/15 09:52:54;;;;;;;;;;;24.80;53.80;;;;;;1579982;74;794;-68
2021/09/15 09:54:59;;;;;;;;;;;24.80;53.80;;;;;;1580258;74;777;-68
2021/09/15 09:57:01;;;;;;;;;;;24.80;53.80;;;;;;1590119;74;705;-67
2021/09/15 09:59:04;;;;;;;;;;;24.80;53.80;;;;;;1571487;74;734;-68
2021/09/15 10:01:06;;;;;;;;;;;24.80;53.80;;;;;;1590456;74;1118;-68
2021/09/15 10:03:08;;;;;;;;;;;24.80;53.70;;;;;;1573182;74;794;-69
2021/09/15 10:05:09;;;;;;;;;;;24.90;53.70;;;;;;1588725;74;714;-68
2021/09/15 10:07:12;;;;;;;;;;;24.80;53.70;;;;;;1574166;74;1936;-68
2021/09/15 10:09:14;;;;;;;;;;;24.80;53.70;;;;;;1571674;74;780;-68
2021/09/15 10:11:16;;;;;;;;;;;24.80;53.60;;;;;;1575856;74;1149;-70
2021/09/15 10:13:18;;;;;;;;;;;24.80;53.60;;;;;;1590016;74;767;-68
2021/09/15 10:15:20;;;;;;;;;;;24.80;53.60;;;;;;1602065;74;702;-68
2021/09/15 10:17:22;;;;;;;;;;;24.90;53.70;;;;;;1586914;74;702;-68
2021/09/15 10:19:31;;;;;;;;;;;24.90;53.60;;;;;;1585860;74;688;-68
2021/09/15 10:21:34;;;;;;;;;;;24.90;53.60;;;;;;1582419;74;1525;-68
2021/09/15 10:23:37;;;;;;;;;;;24.90;53.60;;;;;;1592835;74;690;-68
2021/09/15 10:25:40;;;;;;;;;;;24.90;53.60;;;;;;1596505;74;1675;-69
2021/09/15 10:28:00;;;;;;;;;;;24.90;53.60;;;;;;1586341;74;1935;-68
2021/09/15 10:30:03;;;;;;;;;;;24.90;53.60;;;;;;1586865;74;1105;-70
2021/09/15 10:32:08;;;;;;;;;;;25.00;53.60;;;;;;1590574;74;697;-68
2021/09/15 10:34:10;;;;;;;;;;;25.00;53.40;;;;;;1583444;74;767;-68
2021/09/15 10:36:14;;;;;;;;;;;25.00;53.40;;;;;;1585267;74;803;-70
2021/09/15 10:38:16;;;;;;;;;;;25.00;53.40;;;;;;1589380;74;741;-66
2021/09/15 10:40:19;;;;;;;;;;;25.00;53.30;;;;;;1596711;74;1114;-68
2021/09/15 10:42:48;;;;;;;;;;;25.00;53.20;;;;;;1590557;74;1119;-69
2021/09/15 10:44:52;;;;;;;;;;;25.00;53.20;;;;;;1583856;74;751;-68
2021/09/15 10:47:12;;;;;;;;;;;25.10;53.10;;;;;;1570986;74;1937;-68
2021/09/15 10:49:18;;;;;;;;;;;25.10;52.90;;;;;;1586456;74;780;-68
2021/09/15 10:51:20;;;;;;;;;;;25.00;53.00;;;;;;1577709;74;1141;-67
2021/09/15 10:53:24;;;;;;;;;;;25.10;52.90;;;;;;1583515;74;702;-68
2021/09/15 10:55:26;;;;;;;;;;;25.10;52.90;;;;;;1575491;74;1505;-68
2021/09/15 10:57:30;;;;;;;;;;;25.10;52.80;;;;;;1586039;74;779;-67
2021/09/15 10:59:36;;;;;;;;;;;25.10;52.70;;;;;;1590052;74;800;-72
2021/09/15 11:01:39;;;;;;;;;;;25.10;52.70;;;;;;1559707;74;1533;-69
2021/09/15 11:03:53;;;;;;;;;;;25.10;52.60;;;;;;1584473;74;712;-69
2021/09/15 11:05:55;;;;;;;;;;;25.10;52.70;;;;;;1579504;74;757;-69
2021/09/15 11:07:57;;;;;;;;;;;25.10;52.70;;;;;;1576256;74;1927;-68
2021/09/15 11:09:59;;;;;;;;;;;25.10;52.70;;;;;;1584524;74;1101;-68
2021/09/15 11:12:01;;;;;;;;;;;25.10;52.80;;;;;;1582177;74;778;-66
2021/09/15 11:14:04;;;;;;;;;;;25.20;52.70;;;;;;1588216;74;700;-70
2021/09/15 11:16:10;;;;;;;;;;;25.20;52.70;;;;;;1557102;75;1207;-69
2021/09/15 11:18:16;;;;;;;;;;;25.10;52.70;;;;;;1555042;75;1157;-70
2021/09/15 11:20:21;;;;;;;;;;;25.10;52.80;;;;;;1583878;74;1386;-65
2021/09/15 11:22:24;;;;;;;;;;;25.20;52.80;;;;;;1581758;73;802;-71
2021/09/15 11:24:27;;;;;;;;;;;25.20;52.80;;;;;;1559943;74;1259;-72
2021/09/15 11:26:39;;;;;;;;;;;25.20;52.70;;;;;;1581536;74;718;-72
2021/09/15 11:28:43;;;;;;;;;;;25.10;52.60;;;;;;1580320;74;701;-72
2021/09/15 11:30:52;;;;;;;;;;;25.10;52.70;;;;;;1589010;74;1149;-69
2021/09/15 11:32:54;;;;;;;;;;;25.20;52.80;;;;;;1576242;74;709;-70
2021/09/15 11:34:56;;;;;;;;;;;25.20;52.80;;;;;;1589507;74;728;-74
2021/09/15 11:36:57;;;;;;;;;;;25.10;52.90;;;;;;1595812;74;740;-73
2021/09/15 11:38:59;;;;;;;;;;;25.10;52.80;;;;;;1576695;75;736;-73
2021/09/15 11:41:08;;;;;;;;;;;25.10;52.90;;;;;;1580710;74;1183;-72
2021/09/15 11:43:11;;;;;;;;;;;25.10;52.50;;;;;;1582543;74;779;-73
2021/09/15 11:45:16;;;;;;;;;;;25.10;52.60;;;;;;1586643;74;737;-71
2021/09/15 11:47:25;;;;;;;;;;;25.10;52.60;;;;;;1582338;74;1918;-73
2021/09/15 11:49:30;;;;;;;;;;;25.10;52.60;;;;;;1587606;74;702;-72
2021/09/15 11:51:34;;;;;;;;;;;25.10;52.60;;;;;;1575724;74;1142;-72
2021/09/15 11:53:36;;;;;;;;;;;25.10;52.80;;;;;;1568958;74;697;-75
2021/09/15 11:55:47;;;;;;;;;;;25.10;52.80;;;;;;1575408;74;686;-74
2021/09/15 11:57:51;;;;;;;;;;;25.00;52.80;;;;;;1581597;74;1650;-73
2021/09/15 11:59:53;;;;;;;;;;;25.00;52.90;;;;;;1569572;74;1136;-72
2021/09/15 12:01:55;;;;;;;;;;;25.00;52.90;;;;;;1576126;74;703;-72
2021/09/15 12:03:57;;;;;;;;;;;25.00;53.00;;;;;;1570821;74;652;-73
2021/09/15 12:05:59;;;;;;;;;;;25.00;53.10;;;;;;1578637;74;687;-73
2021/09/15 12:08:01;;;;;;;;;;;25.00;53.20;;;;;;1579850;74;1917;-72
2021/09/15 12:10:07;;;;;;;;;;;25.00;53.20;;;;;;1553248;75;1396;-74
2021/09/15 12:12:12;;;;;;;;;;;25.00;53.30;;;;;;1590003;74;740;-72
2021/09/15 12:14:14;;;;;;;;;;;25.00;53.30;;;;;;1566982;74;755;-73
2021/09/15 12:16:26;;;;;;;;;;;24.90;53.40;;;;;;1568558;74;749;-73
2021/09/15 12:18:38;;;;;;;;;;;25.00;53.40;;;;;;1559281;74;1518;-74